sensor_id;sensor_type;location;lat;lon;timestamp;P1;durP1;ratioP1;P2;durP2;ratioP2
57335;SDS011;43171;50.994;18.204;2023-06-24T00:05:46;114.70;;;53.00;;
57335;SDS011;43171;50.994;18.204;2023-06-24T00:15:39;79.10;;;44.50;;
57335;SDS011;43171;50.994;18.204;2023-06-24T00:25:28;102.70;;;49.30;;
57335;SDS011;43171;50.994;18.204;2023-06-24T00:42:43;96.20;;;45.20;;
57335;SDS011;43171;50.994;18.204;2023-06-24T00:52:26;97.10;;;43.40;;
57335;SDS011;43171;50.994;18.204;2023-06-24T01:02:09;102.70;;;43.00;;
57335;SDS011;43171;50.994;18.204;2023-06-24T01:11:51;35.30;;;22.80;;
57335;SDS011;43171;50.994;18.204;2023-06-24T01:29:47;95.70;;;44.70;;
57335;SDS011;43171;50.994;18.204;2023-06-24T01:39:47;80.90;;;40.00;;
57335;SDS011;43171;50.994;18.204;2023-06-24T01:49:33;81.50;;;42.70;;
57335;SDS011;43171;50.994;18.204;2023-06-24T01:59:20;81.60;;;40.20;;
57335;SDS011;43171;50.994;18.204;2023-06-24T02:09:03;53.20;;;29.60;;
57335;SDS011;43171;50.994;18.204;2023-06-24T02:18:47;56.40;;;33.10;;
57335;SDS011;43171;50.994;18.204;2023-06-24T02:28:31;55.50;;;29.80;;
57335;SDS011;43171;50.994;18.204;2023-06-24T02:38:15;57.10;;;31.50;;
57335;SDS011;43171;50.994;18.204;2023-06-24T02:47:59;49.50;;;26.90;;
57335;SDS011;43171;50.994;18.204;2023-06-24T02:57:42;47.30;;;28.10;;
57335;SDS011;43171;50.994;18.204;2023-06-24T03:07:29;61.40;;;29.30;;
57335;SDS011;43171;50.994;18.204;2023-06-24T03:17:11;50.20;;;33.10;;
57335;SDS011;43171;50.994;18.204;2023-06-24T03:26:56;58.80;;;31.10;;
57335;SDS011;43171;50.994;18.204;2023-06-24T03:36:39;49.70;;;28.80;;
57335;SDS011;43171;50.994;18.204;2023-06-24T03:46:21;51.20;;;28.70;;
57335;SDS011;43171;50.994;18.204;2023-06-24T03:56:05;47.80;;;28.00;;
57335;SDS011;43171;50.994;18.204;2023-06-24T04:05:54;54.70;;;29.00;;
57335;SDS011;43171;50.994;18.204;2023-06-24T04:15:37;50.90;;;30.00;;
57335;SDS011;43171;50.994;18.204;2023-06-24T04:25:19;44.60;;;28.90;;
57335;SDS011;43171;50.994;18.204;2023-06-24T04:35:02;50.50;;;25.80;;
57335;SDS011;43171;50.994;18.204;2023-06-24T04:44:47;29.60;;;21.50;;
57335;SDS011;43171;50.994;18.204;2023-06-24T04:54:34;29.70;;;20.10;;
57335;SDS011;43171;50.994;18.204;2023-06-24T05:04:16;26.70;;;15.90;;
57335;SDS011;43171;50.994;18.204;2023-06-24T05:14:00;30.10;;;16.50;;
57335;SDS011;43171;50.994;18.204;2023-06-24T05:23:42;26.60;;;16.10;;
57335;SDS011;43171;50.994;18.204;2023-06-24T05:33:24;29.70;;;18.30;;
57335;SDS011;43171;50.994;18.204;2023-06-24T05:40:41;37.00;;;21.40;;
57335;SDS011;43171;50.994;18.204;2023-06-24T05:50:23;16.80;;;11.90;;
57335;SDS011;43171;50.994;18.204;2023-06-24T06:00:06;23.60;;;14.90;;
57335;SDS011;43171;50.994;18.204;2023-06-24T06:07:23;31.80;;;18.80;;
57335;SDS011;43171;50.994;18.204;2023-06-24T06:17:05;19.10;;;8.00;;
57335;SDS011;43171;50.994;18.204;2023-06-24T06:26:47;30.50;;;15.80;;
57335;SDS011;43171;50.994;18.204;2023-06-24T06:36:30;33.00;;;15.80;;
57335;SDS011;43171;50.994;18.204;2023-06-24T06:46:15;28.70;;;14.60;;
57335;SDS011;43171;50.994;18.204;2023-06-24T06:55:57;29.10;;;15.80;;
57335;SDS011;43171;50.994;18.204;2023-06-24T07:05:41;25.20;;;13.50;;
57335;SDS011;43171;50.994;18.204;2023-06-24T07:15:26;25.20;;;15.40;;
57335;SDS011;43171;50.994;18.204;2023-06-24T07:25:09;23.60;;;13.60;;
57335;SDS011;43171;50.994;18.204;2023-06-24T07:34:51;20.80;;;13.20;;
57335;SDS011;43171;50.994;18.204;2023-06-24T07:44:33;23.80;;;13.20;;
57335;SDS011;43171;50.994;18.204;2023-06-24T07:54:15;19.10;;;9.30;;
57335;SDS011;43171;50.994;18.204;2023-06-24T08:03:59;11.80;;;8.80;;
57335;SDS011;43171;50.994;18.204;2023-06-24T08:13:41;20.80;;;9.00;;
57335;SDS011;43171;50.994;18.204;2023-06-24T08:23:24;10.80;;;7.20;;
57335;SDS011;43171;50.994;18.204;2023-06-24T08:33:06;16.90;;;10.40;;
57335;SDS011;43171;50.994;18.204;2023-06-24T08:42:48;10.60;;;7.20;;
57335;SDS011;43171;50.994;18.204;2023-06-24T08:52:35;13.00;;;7.30;;
57335;SDS011;43171;50.994;18.204;2023-06-24T09:02:19;11.20;;;8.10;;
57335;SDS011;43171;50.994;18.204;2023-06-24T09:12:13;11.90;;;7.70;;
57335;SDS011;43171;50.994;18.204;2023-06-24T09:29:22;9.20;;;6.90;;
57335;SDS011;43171;50.994;18.204;2023-06-24T09:39:16;11.10;;;7.60;;
57335;SDS011;43171;50.994;18.204;2023-06-24T09:49:01;12.60;;;7.40;;
57335;SDS011;43171;50.994;18.204;2023-06-24T09:58:44;7.90;;;6.20;;
57335;SDS011;43171;50.994;18.204;2023-06-24T10:08:31;11.80;;;7.80;;
57335;SDS011;43171;50.994;18.204;2023-06-24T10:18:33;6.80;;;4.90;;
57335;SDS011;43171;50.994;18.204;2023-06-24T10:28:24;13.50;;;10.40;;
57335;SDS011;43171;50.994;18.204;2023-06-24T10:38:11;13.60;;;9.00;;
57335;SDS011;43171;50.994;18.204;2023-06-24T10:48:24;8.40;;;6.80;;
57335;SDS011;43171;50.994;18.204;2023-06-24T10:58:10;19.90;;;9.50;;
57335;SDS011;43171;50.994;18.204;2023-06-24T11:08:05;16.30;;;11.70;;
57335;SDS011;43171;50.994;18.204;2023-06-24T11:17:50;13.80;;;12.30;;
57335;SDS011;43171;50.994;18.204;2023-06-24T11:27:40;15.50;;;11.00;;
57335;SDS011;43171;50.994;18.204;2023-06-24T11:37:36;19.70;;;7.90;;
57335;SDS011;43171;50.994;18.204;2023-06-24T11:47:30;5.50;;;3.90;;
57335;SDS011;43171;50.994;18.204;2023-06-24T12:08:00;15.80;;;12.30;;
57335;SDS011;43171;50.994;18.204;2023-06-24T12:17:43;14.30;;;10.90;;
57335;SDS011;43171;50.994;18.204;2023-06-24T12:27:27;13.40;;;10.90;;
57335;SDS011;43171;50.994;18.204;2023-06-24T12:37:09;27.80;;;14.30;;
57335;SDS011;43171;50.994;18.204;2023-06-24T12:46:52;18.40;;;12.50;;
57335;SDS011;43171;50.994;18.204;2023-06-24T12:56:34;16.40;;;11.20;;
57335;SDS011;43171;50.994;18.204;2023-06-24T13:06:16;23.80;;;14.20;;
57335;SDS011;43171;50.994;18.204;2023-06-24T13:16:00;27.30;;;13.50;;
57335;SDS011;43171;50.994;18.204;2023-06-24T13:25:42;19.90;;;12.90;;
57335;SDS011;43171;50.994;18.204;2023-06-24T13:35:24;19.90;;;13.40;;
57335;SDS011;43171;50.994;18.204;2023-06-24T13:45:06;16.40;;;10.90;;
57335;SDS011;43171;50.994;18.204;2023-06-24T13:54:50;18.90;;;10.60;;
57335;SDS011;43171;50.994;18.204;2023-06-24T14:04:34;10.90;;;8.90;;
57335;SDS011;43171;50.994;18.204;2023-06-24T14:14:20;17.30;;;10.40;;
57335;SDS011;43171;50.994;18.204;2023-06-24T14:24:04;9.70;;;8.40;;
57335;SDS011;43171;50.994;18.204;2023-06-24T14:33:48;8.40;;;6.50;;
57335;SDS011;43171;50.994;18.204;2023-06-24T14:43:32;7.20;;;6.50;;
57335;SDS011;43171;50.994;18.204;2023-06-24T14:53:14;8.40;;;7.50;;
57335;SDS011;43171;50.994;18.204;2023-06-24T15:02:56;9.40;;;7.10;;
57335;SDS011;43171;50.994;18.204;2023-06-24T15:12:38;22.20;;;12.50;;
57335;SDS011;43171;50.994;18.204;2023-06-24T15:22:25;6.70;;;4.50;;
57335;SDS011;43171;50.994;18.204;2023-06-24T15:32:07;7.90;;;5.50;;
57335;SDS011;43171;50.994;18.204;2023-06-24T15:41:49;4.50;;;3.80;;
57335;SDS011;43171;50.994;18.204;2023-06-24T15:51:35;13.80;;;4.90;;
57335;SDS011;43171;50.994;18.204;2023-06-24T15:58:51;8.30;;;6.30;;
57335;SDS011;43171;50.994;18.204;2023-06-24T16:08:33;9.20;;;4.50;;
57335;SDS011;43171;50.994;18.204;2023-06-24T16:18:19;5.70;;;4.80;;
57335;SDS011;43171;50.994;18.204;2023-06-24T16:28:02;6.90;;;5.60;;
57335;SDS011;43171;50.994;18.204;2023-06-24T16:37:45;5.30;;;4.80;;
57335;SDS011;43171;50.994;18.204;2023-06-24T16:47:27;6.70;;;4.80;;
57335;SDS011;43171;50.994;18.204;2023-06-24T16:57:10;5.90;;;4.90;;
57335;SDS011;43171;50.994;18.204;2023-06-24T17:06:53;5.20;;;4.80;;
57335;SDS011;43171;50.994;18.204;2023-06-24T17:16:35;6.00;;;5.40;;
57335;SDS011;43171;50.994;18.204;2023-06-24T17:26:17;6.60;;;5.70;;
57335;SDS011;43171;50.994;18.204;2023-06-24T17:36:00;12.00;;;6.70;;
57335;SDS011;43171;50.994;18.204;2023-06-24T17:45:43;8.80;;;7.40;;
57335;SDS011;43171;50.994;18.204;2023-06-24T17:55:25;6.10;;;5.20;;
57335;SDS011;43171;50.994;18.204;2023-06-24T18:05:13;7.20;;;5.60;;
57335;SDS011;43171;50.994;18.204;2023-06-24T18:14:56;5.90;;;5.30;;
57335;SDS011;43171;50.994;18.204;2023-06-24T18:24:57;6.40;;;5.80;;
57335;SDS011;43171;50.994;18.204;2023-06-24T18:29:48;8.90;;;6.90;;
57335;SDS011;43171;50.994;18.204;2023-06-24T18:39:30;8.30;;;5.10;;
57335;SDS011;43171;50.994;18.204;2023-06-24T18:49:12;6.40;;;5.80;;
57335;SDS011;43171;50.994;18.204;2023-06-24T18:58:55;7.50;;;5.50;;
57335;SDS011;43171;50.994;18.204;2023-06-24T19:08:37;6.70;;;6.00;;
57335;SDS011;43171;50.994;18.204;2023-06-24T19:18:19;9.20;;;7.90;;
57335;SDS011;43171;50.994;18.204;2023-06-24T19:28:01;7.80;;;6.80;;
57335;SDS011;43171;50.994;18.204;2023-06-24T19:37:44;13.80;;;9.80;;
57335;SDS011;43171;50.994;18.204;2023-06-24T19:47:28;11.20;;;8.10;;
57335;SDS011;43171;50.994;18.204;2023-06-24T19:57:14;11.20;;;8.70;;
57335;SDS011;43171;50.994;18.204;2023-06-24T20:07:01;9.00;;;6.20;;
57335;SDS011;43171;50.994;18.204;2023-06-24T20:16:43;8.70;;;7.70;;
57335;SDS011;43171;50.994;18.204;2023-06-24T20:24:00;11.60;;;8.50;;
57335;SDS011;43171;50.994;18.204;2023-06-24T20:33:43;13.50;;;6.70;;
57335;SDS011;43171;50.994;18.204;2023-06-24T20:43:26;9.60;;;8.20;;
57335;SDS011;43171;50.994;18.204;2023-06-24T20:53:09;7.20;;;5.20;;
57335;SDS011;43171;50.994;18.204;2023-06-24T21:02:55;13.50;;;9.10;;
57335;SDS011;43171;50.994;18.204;2023-06-24T21:12:37;11.70;;;7.70;;
57335;SDS011;43171;50.994;18.204;2023-06-24T21:22:19;9.70;;;7.60;;
57335;SDS011;43171;50.994;18.204;2023-06-24T21:32:01;8.90;;;7.80;;
57335;SDS011;43171;50.994;18.204;2023-06-24T21:39:19;13.90;;;9.40;;
57335;SDS011;43171;50.994;18.204;2023-06-24T21:49:02;8.60;;;7.40;;
57335;SDS011;43171;50.994;18.204;2023-06-24T21:58:45;12.60;;;9.10;;
57335;SDS011;43171;50.994;18.204;2023-06-24T22:08:28;20.20;;;11.00;;
57335;SDS011;43171;50.994;18.204;2023-06-24T22:10:53;14.40;;;10.30;;
57335;SDS011;43171;50.994;18.204;2023-06-24T22:20:35;20.40;;;10.70;;
57335;SDS011;43171;50.994;18.204;2023-06-24T22:30:18;12.40;;;9.60;;
57335;SDS011;43171;50.994;18.204;2023-06-24T22:40:04;20.60;;;11.00;;
57335;SDS011;43171;50.994;18.204;2023-06-24T22:49:48;11.00;;;9.20;;
57335;SDS011;43171;50.994;18.204;2023-06-24T22:59:30;12.40;;;9.40;;
57335;SDS011;43171;50.994;18.204;2023-06-24T23:09:13;14.90;;;10.50;;
57335;SDS011;43171;50.994;18.204;2023-06-24T23:18:56;11.30;;;8.20;;
57335;SDS011;43171;50.994;18.204;2023-06-24T23:28:41;10.60;;;7.90;;
57335;SDS011;43171;50.994;18.204;2023-06-24T23:38:30;13.30;;;7.10;;
57335;SDS011;43171;50.994;18.204;2023-06-24T23:45:48;16.00;;;10.50;;
57335;SDS011;43171;50.994;18.204;2023-06-24T23:55:31;14.50;;;9.90;;
